Peawanuck, Canada
Current Conditions -  °F | °C
As of 7:00 PM on Friday 21 Nov 2014 (Local Time) from CYPO Reporting Station
Light Snow Light Snow  
Wind Chill: -12°   Ceiling: 1800
Heat Index:   Visibility: 2mi
Dew Point:   Wind: 13mph
Humidity: 78%   Direction: 170°S
Pressure: 29.58"   Gusts: NA
Location:  55.01°N, 85.42°W
Report Text: CYPO 220000Z AUTO 17011KT 2SM -SN OVC018 M15/M18 A2958 RMK VIS VRB 1 1/2-3 SLP024
Loading
Personal Weather Stations






























Interactive Weather Map New forecast layout! Learn more

10-Day Weather Forecast

Advertisements
Track Severe Weather on mobile